createdAt,value
2017-07-20T00:01:53.602Z,72.52
2017-07-20T00:04:21.043Z,72.37
2017-07-20T00:06:48.520Z,71.74
2017-07-20T00:09:15.998Z,70.95
2017-07-20T00:11:43.461Z,71.86
2017-07-20T00:14:10.897Z,71.80
2017-07-20T00:16:38.370Z,71.77
2017-07-20T00:19:05.802Z,71.90
2017-07-20T00:21:33.286Z,71.52
2017-07-20T00:24:00.727Z,71.93
2017-07-20T00:26:28.195Z,71.62
2017-07-20T00:28:55.785Z,71.66
2017-07-20T00:31:23.270Z,72.17
2017-07-20T00:33:50.766Z,72.18
2017-07-20T00:36:18.342Z,71.43
2017-07-20T00:38:45.806Z,71.20
2017-07-20T00:41:13.333Z,70.97
2017-07-20T00:43:40.793Z,71.02
2017-07-20T00:46:08.236Z,70.78
2017-07-20T00:48:35.716Z,70.12
2017-07-20T00:51:03.168Z,69.94
2017-07-20T00:53:30.644Z,72.61
2017-07-20T00:55:58.092Z,71.09
2017-07-20T00:58:25.648Z,70.86
2017-07-20T01:00:53.108Z,70.45
2017-07-20T01:03:20.583Z,71.35
2017-07-20T01:05:48.028Z,73.00
2017-07-20T01:08:15.577Z,72.39
2017-07-20T01:10:43.019Z,72.46
2017-07-20T01:13:10.591Z,72.80
2017-07-20T01:15:38.047Z,74.91
2017-07-20T01:18:05.511Z,77.19
2017-07-20T01:20:32.970Z,80.85
2017-07-20T01:23:00.979Z,79.33
2017-07-20T01:25:28.480Z,79.46
2017-07-20T01:27:56.045Z,80.45
2017-07-20T01:30:23.497Z,80.17
2017-07-20T01:32:51.060Z,81.26
2017-07-20T01:35:18.514Z,81.17
2017-07-20T01:37:46.076Z,83.64
2017-07-20T01:40:13.575Z,83.31
2017-07-20T01:42:41.024Z,86.10
2017-07-20T01:45:08.547Z,86.49
2017-07-20T01:47:36.003Z,86.19
2017-07-20T01:50:03.514Z,85.01
2017-07-20T01:52:30.995Z,84.48
2017-07-20T01:54:58.581Z,83.58
2017-07-20T01:57:26.036Z,83.76
2017-07-20T01:59:53.506Z,83.90
2017-07-20T02:02:21.026Z,84.35
2017-07-20T02:04:48.506Z,83.96
2017-07-20T02:07:15.962Z,83.24
2017-07-20T02:09:43.463Z,84.49
2017-07-20T02:12:10.916Z,84.59
2017-07-20T02:14:38.403Z,82.65
2017-07-20T02:17:05.892Z,81.51
2017-07-20T02:19:33.448Z,82.30
2017-07-20T02:22:01.007Z,81.95
2017-07-20T02:24:28.528Z,82.27
2017-07-20T02:26:55.981Z,83.46
2017-07-20T02:29:23.459Z,84.13
2017-07-20T02:31:50.955Z,84.71
2017-07-20T02:34:18.656Z,82.78
2017-07-20T02:36:46.286Z,82.22
2017-07-20T02:39:13.817Z,82.74
2017-07-20T02:41:41.295Z,81.95
2017-07-20T02:44:08.838Z,81.49
2017-07-20T02:46:36.495Z,81.76
2017-07-20T02:49:04.105Z,79.49
2017-07-20T02:51:31.576Z,81.33
2017-07-20T02:53:59.066Z,80.85
2017-07-20T02:56:26.552Z,81.77
2017-07-20T02:58:54.012Z,81.95
2017-07-20T03:01:21.515Z,80.75
2017-07-20T03:03:49.016Z,80.71
2017-07-20T03:06:16.512Z,81.24
2017-07-20T03:08:44.015Z,82.77
2017-07-20T03:11:11.568Z,85.47
2017-07-20T03:13:39.024Z,84.33
2017-07-20T03:16:06.480Z,84.79
2017-07-20T03:18:33.952Z,85.10
2017-07-20T03:21:01.496Z,85.57
2017-07-20T03:23:28.967Z,85.09
2017-07-20T03:25:56.516Z,84.89
2017-07-20T03:28:24.019Z,83.71
2017-07-20T03:30:51.527Z,83.49
2017-07-20T03:33:19.091Z,85.73
2017-07-20T03:35:46.645Z,86.01
2017-07-20T03:38:14.111Z,83.73
2017-07-20T03:40:41.659Z,83.72
2017-07-20T03:43:09.220Z,83.18
2017-07-20T03:45:36.779Z,82.96
2017-07-20T03:48:04.267Z,83.39
2017-07-20T03:50:31.728Z,83.60
2017-07-20T03:52:59.247Z,82.27
2017-07-20T03:55:26.719Z,79.95
2017-07-20T03:57:54.174Z,80.39
2017-07-20T04:00:21.639Z,80.16
2017-07-20T04:02:49.116Z,80.27
2017-07-20T04:05:16.628Z,81.96
2017-07-20T04:07:44.093Z,81.47
2017-07-20T04:10:12.247Z,82.47
2017-07-20T04:12:39.711Z,83.43
2017-07-20T04:15:07.184Z,83.68
2017-07-20T04:17:34.636Z,81.53
2017-07-20T04:20:02.190Z,82.21
2017-07-20T04:22:29.748Z,82.33
2017-07-20T04:24:57.471Z,82.03
2017-07-20T04:27:24.951Z,82.66
2017-07-20T04:29:52.408Z,80.81
2017-07-20T04:32:19.881Z,81.84
2017-07-20T04:34:47.323Z,78.92
2017-07-20T04:37:14.799Z,81.14
2017-07-20T04:39:42.368Z,81.19
2017-07-20T04:42:09.848Z,81.36
2017-07-20T04:44:37.300Z,81.95
2017-07-20T04:47:05.203Z,81.51
2017-07-20T04:49:32.695Z,80.89
2017-07-20T04:52:00.179Z,82.42
2017-07-20T04:54:27.629Z,82.02
2017-07-20T04:56:55.148Z,81.99
2017-07-20T04:59:22.652Z,81.31
2017-07-20T05:01:50.107Z,80.96
2017-07-20T05:04:17.635Z,81.12
2017-07-20T05:06:45.095Z,81.94
2017-07-20T05:09:12.575Z,81.61
2017-07-20T05:11:40.158Z,80.18
2017-07-20T05:14:07.648Z,80.14
2017-07-20T05:16:35.098Z,81.12
2017-07-20T05:19:02.675Z,81.55
2017-07-20T05:21:30.160Z,82.15
2017-07-20T05:23:57.631Z,82.48
2017-07-20T05:26:25.149Z,82.44
2017-07-20T05:28:52.615Z,81.08
2017-07-20T05:31:20.163Z,81.95
2017-07-20T05:33:47.648Z,80.15
2017-07-20T05:36:15.176Z,79.27
2017-07-20T05:38:42.634Z,78.68
2017-07-20T05:41:10.123Z,79.12
2017-07-20T05:43:37.580Z,78.56
2017-07-20T05:46:05.064Z,78.33
2017-07-20T05:48:32.565Z,77.94
2017-07-20T05:51:00.120Z,78.35
2017-07-20T05:53:27.567Z,77.08
2017-07-20T05:55:55.039Z,77.92
2017-07-20T05:58:22.515Z,76.87
2017-07-20T06:00:49.983Z,79.10
2017-07-20T06:03:17.431Z,80.52
2017-07-20T06:05:44.900Z,81.03
2017-07-20T06:08:12.346Z,81.09
2017-07-20T06:10:39.826Z,78.26
2017-07-20T06:13:07.313Z,79.00
2017-07-20T06:15:34.758Z,79.53
2017-07-20T06:18:02.235Z,78.97
2017-07-20T06:20:29.711Z,79.00
2017-07-20T06:22:57.255Z,77.80
2017-07-20T06:25:24.700Z,79.18
2017-07-20T06:27:52.180Z,78.48
2017-07-20T06:30:19.732Z,75.11
2017-07-20T06:32:47.312Z,73.28
2017-07-20T06:35:14.755Z,74.62
2017-07-20T06:37:42.306Z,75.99
2017-07-20T06:40:09.816Z,72.42
2017-07-20T06:42:37.323Z,75.20
2017-07-20T06:45:04.799Z,74.93
2017-07-20T06:47:32.244Z,74.10
2017-07-20T06:49:59.791Z,73.20
2017-07-20T06:52:27.249Z,74.19
2017-07-20T06:54:54.731Z,72.93
2017-07-20T06:57:22.273Z,73.36
2017-07-20T06:59:49.823Z,71.91
2017-07-20T07:02:17.262Z,71.29
2017-07-20T07:04:44.734Z,69.75
2017-07-20T07:07:12.203Z,69.62
2017-07-20T07:09:39.678Z,69.11
2017-07-20T07:12:07.152Z,68.72
2017-07-20T07:14:35.163Z,67.61
2017-07-20T07:17:02.612Z,69.06
2017-07-20T07:19:30.145Z,68.18
2017-07-20T07:21:57.598Z,68.19
2017-07-20T07:24:25.104Z,67.79
2017-07-20T07:26:52.675Z,66.97
2017-07-20T07:29:20.124Z,67.93
2017-07-20T07:31:47.596Z,67.44
2017-07-20T07:34:15.110Z,68.69
2017-07-20T07:36:42.575Z,68.96
2017-07-20T07:39:10.049Z,68.94
2017-07-20T07:41:37.532Z,69.21
2017-07-20T07:44:04.988Z,69.52
2017-07-20T07:46:32.480Z,69.44
2017-07-20T07:48:59.974Z,69.23
2017-07-20T07:51:27.445Z,69.27
2017-07-20T07:53:54.989Z,70.51
2017-07-20T07:56:22.543Z,69.17
2017-07-20T07:58:49.996Z,68.51
2017-07-20T08:01:17.464Z,65.60
2017-07-20T08:03:44.923Z,65.88
2017-07-20T08:06:12.373Z,65.50
2017-07-20T08:08:39.927Z,65.40
2017-07-20T08:11:07.385Z,66.61
2017-07-20T08:13:34.845Z,65.64
2017-07-20T08:16:02.287Z,65.79
2017-07-20T08:18:29.753Z,66.24
2017-07-20T08:20:57.204Z,65.14
2017-07-20T08:23:24.669Z,65.26
2017-07-20T08:25:52.108Z,67.53
2017-07-20T08:28:19.579Z,67.10
2017-07-20T08:30:47.023Z,68.93
2017-07-20T08:33:14.507Z,70.13
2017-07-20T08:35:42.055Z,71.93
2017-07-20T08:38:09.510Z,73.08
2017-07-20T08:40:36.979Z,73.32
2017-07-20T08:43:04.522Z,75.86
2017-07-20T08:45:31.987Z,76.38
2017-07-20T08:47:59.431Z,75.27
2017-07-20T08:50:27.010Z,76.45
2017-07-20T08:52:54.552Z,78.46
2017-07-20T08:55:22.013Z,77.59
2017-07-20T08:57:49.464Z,77.98
2017-07-20T09:00:17.125Z,76.25
2017-07-20T09:02:44.639Z,74.35
2017-07-20T09:05:12.099Z,75.74
2017-07-20T09:07:39.563Z,75.05
2017-07-20T09:10:07.023Z,73.53
2017-07-20T09:12:34.816Z,74.28
2017-07-20T09:15:02.287Z,75.09
2017-07-20T09:17:29.836Z,74.26
2017-07-20T09:19:57.298Z,74.37
2017-07-20T09:22:24.739Z,75.96
2017-07-20T09:24:52.458Z,75.61
2017-07-20T09:27:19.903Z,75.43
2017-07-20T09:29:47.426Z,75.44
2017-07-20T09:32:14.887Z,74.97
2017-07-20T09:34:42.344Z,74.93
2017-07-20T09:37:09.802Z,75.66
2017-07-20T09:39:37.353Z,75.26
2017-07-20T09:42:04.820Z,76.50
2017-07-20T09:44:32.259Z,77.98
2017-07-20T09:46:59.720Z,78.03
2017-07-20T09:49:27.273Z,77.19
2017-07-20T09:51:54.738Z,77.42
2017-07-20T09:54:22.179Z,76.56
2017-07-20T09:56:49.647Z,76.77
2017-07-20T09:59:17.107Z,77.04
2017-07-20T10:01:44.589Z,75.87
2017-07-20T10:04:12.052Z,75.28
2017-07-20T10:06:39.575Z,75.29
2017-07-20T10:09:07.046Z,74.84
2017-07-20T10:11:34.588Z,74.37
2017-07-20T10:14:02.049Z,75.69
2017-07-20T10:16:29.487Z,75.61
2017-07-20T10:18:56.962Z,74.94
2017-07-20T10:21:24.419Z,75.56
2017-07-20T10:23:51.884Z,74.05
2017-07-20T10:26:19.339Z,74.18
2017-07-20T10:28:46.903Z,74.67
2017-07-20T10:31:14.376Z,73.92
2017-07-20T10:33:41.906Z,72.80
2017-07-20T10:36:09.520Z,72.70
2017-07-20T10:38:37.019Z,73.29
2017-07-20T10:41:04.480Z,72.60
2017-07-20T10:43:32.058Z,73.18
2017-07-20T10:45:59.502Z,72.95
2017-07-20T10:48:26.947Z,73.08
2017-07-20T10:50:54.463Z,73.06
2017-07-20T10:53:21.958Z,73.11
2017-07-20T10:55:49.431Z,72.98
2017-07-20T10:58:16.981Z,72.65
2017-07-20T11:00:44.442Z,70.17
2017-07-20T11:03:12.834Z,69.44
2017-07-20T11:05:40.316Z,69.13
2017-07-20T11:08:07.755Z,66.75
2017-07-20T11:10:35.291Z,66.22
2017-07-20T11:13:02.755Z,65.70
2017-07-20T11:15:31.134Z,64.44
2017-07-20T11:17:58.695Z,65.77
2017-07-20T11:20:26.163Z,65.29
2017-07-20T11:22:53.692Z,65.69
2017-07-20T11:25:21.206Z,65.92
2017-07-20T11:27:48.646Z,64.50
2017-07-20T11:30:16.127Z,64.60
2017-07-20T11:32:43.628Z,63.84
2017-07-20T11:35:11.178Z,64.03
2017-07-20T11:37:38.639Z,64.79
2017-07-20T11:40:06.199Z,64.00
2017-07-20T11:42:33.687Z,63.48
2017-07-20T11:45:01.127Z,62.00
2017-07-20T11:47:28.586Z,63.08
2017-07-20T11:49:56.125Z,62.47
2017-07-20T11:52:23.599Z,62.30
2017-07-20T11:54:51.039Z,60.39
2017-07-20T11:57:18.503Z,59.32
2017-07-20T11:59:46.052Z,59.63
2017-07-20T12:02:13.514Z,58.07
2017-07-20T12:04:40.967Z,57.00
2017-07-20T12:07:08.432Z,57.80
2017-07-20T12:09:35.983Z,57.67
2017-07-20T12:12:03.467Z,57.56
2017-07-20T12:14:30.974Z,57.71
2017-07-20T12:16:58.413Z,55.43
2017-07-20T12:19:26.091Z,56.00
2017-07-20T12:21:53.540Z,54.77
2017-07-20T12:24:21.026Z,53.55
2017-07-20T12:26:48.479Z,54.12
2017-07-20T12:29:15.993Z,55.07
2017-07-20T12:31:43.435Z,55.81
2017-07-20T12:34:10.968Z,55.91
2017-07-20T12:36:38.423Z,55.83
2017-07-20T12:39:05.970Z,55.59
2017-07-20T12:41:33.432Z,54.16
2017-07-20T12:44:00.935Z,54.03
2017-07-20T12:46:28.371Z,52.74
2017-07-20T12:48:55.834Z,53.50
2017-07-20T12:51:23.287Z,53.07
2017-07-20T12:53:50.810Z,53.82
2017-07-20T12:56:18.255Z,54.81
2017-07-20T12:58:45.857Z,54.81
2017-07-20T13:01:13.380Z,55.15
2017-07-20T13:03:40.853Z,54.90
2017-07-20T13:06:08.551Z,55.91
2017-07-20T13:08:36.039Z,54.89
2017-07-20T13:11:03.526Z,55.52
2017-07-20T13:13:30.982Z,58.19
2017-07-20T13:15:58.533Z,61.95
2017-07-20T13:18:26.160Z,65.44
2017-07-20T13:20:53.627Z,64.31
2017-07-20T13:23:21.160Z,63.14
2017-07-20T13:25:48.647Z,63.46
2017-07-20T13:28:16.087Z,63.44
2017-07-20T13:30:43.564Z,60.76
2017-07-20T13:33:11.131Z,58.53
2017-07-20T13:35:38.953Z,56.59
2017-07-20T13:38:06.440Z,55.66
2017-07-20T13:40:33.915Z,56.49
2017-07-20T13:43:01.367Z,57.38
2017-07-20T13:45:28.842Z,56.22
2017-07-20T13:47:56.307Z,57.82
2017-07-20T13:50:23.839Z,57.54
2017-07-20T13:52:51.312Z,57.85
2017-07-20T13:55:18.858Z,57.41
2017-07-20T13:57:46.318Z,57.52
2017-07-20T14:00:13.874Z,58.08
2017-07-20T14:02:41.339Z,58.15
2017-07-20T14:05:08.789Z,56.81
2017-07-20T14:07:36.248Z,56.64
2017-07-20T14:10:03.700Z,57.20
2017-07-20T14:12:31.172Z,56.55
2017-07-20T14:14:58.663Z,56.55
2017-07-20T14:17:26.179Z,55.37
2017-07-20T14:19:53.738Z,55.35
2017-07-20T14:22:21.196Z,55.47
2017-07-20T14:24:48.739Z,54.54
2017-07-20T14:27:16.182Z,54.86
2017-07-20T14:29:43.755Z,54.50
2017-07-20T14:32:11.248Z,54.13
2017-07-20T14:34:38.856Z,54.17
2017-07-20T14:37:06.300Z,54.34
2017-07-20T14:39:33.790Z,53.93
2017-07-20T14:42:01.563Z,54.41
2017-07-20T14:44:29.028Z,54.19
2017-07-20T14:46:56.551Z,53.43
2017-07-20T14:49:24.038Z,52.21
2017-07-20T14:51:51.579Z,52.49
2017-07-20T14:54:19.067Z,51.93
2017-07-20T14:56:46.531Z,51.66
2017-07-20T14:59:13.975Z,52.61
2017-07-20T15:01:41.452Z,52.15
2017-07-20T15:04:08.895Z,52.88
2017-07-20T15:06:36.418Z,52.45
2017-07-20T15:09:03.868Z,51.54
2017-07-20T15:11:31.353Z,50.79
2017-07-20T15:13:58.895Z,50.49
2017-07-20T15:16:26.363Z,51.07
2017-07-20T15:18:53.808Z,51.37
2017-07-20T15:21:21.312Z,51.44
2017-07-20T15:23:48.755Z,50.90
2017-07-20T15:26:16.300Z,51.73
2017-07-20T15:28:43.742Z,51.18
2017-07-20T15:31:11.224Z,48.94
2017-07-20T15:33:38.751Z,49.55
2017-07-20T15:36:06.233Z,49.83
2017-07-20T15:38:33.765Z,49.73
2017-07-20T15:41:01.220Z,50.11
2017-07-20T15:43:28.695Z,47.93
2017-07-20T15:45:56.237Z,47.42
2017-07-20T15:48:23.704Z,47.75
2017-07-20T15:50:51.161Z,46.09
2017-07-20T15:53:19.344Z,49.12
2017-07-20T15:55:46.790Z,48.33
2017-07-20T15:58:14.331Z,49.81
2017-07-20T16:00:41.784Z,48.13
2017-07-20T16:03:09.356Z,48.54
2017-07-20T16:05:37.118Z,47.74
2017-07-20T16:08:04.624Z,47.96
2017-07-20T16:10:32.127Z,43.08
2017-07-20T16:12:59.644Z,42.93
2017-07-20T16:15:27.096Z,43.78
2017-07-20T16:17:54.635Z,41.19
2017-07-20T16:20:22.077Z,41.14
2017-07-20T16:22:49.548Z,40.04
2017-07-20T16:25:17.075Z,39.77
2017-07-20T16:27:44.584Z,40.31
2017-07-20T16:30:12.023Z,40.71
2017-07-20T16:32:39.583Z,40.39
2017-07-20T16:35:07.107Z,40.13
2017-07-20T16:37:34.546Z,40.38
2017-07-20T16:40:02.076Z,40.57
2017-07-20T16:42:29.525Z,39.94
2017-07-20T16:44:57.035Z,40.72
2017-07-20T16:47:24.476Z,40.61
2017-07-20T16:49:51.959Z,41.01
2017-07-20T16:52:19.436Z,40.82
2017-07-20T16:54:46.961Z,40.51
2017-07-20T16:57:14.400Z,40.72
2017-07-20T16:59:41.971Z,40.17
2017-07-20T17:02:09.415Z,40.91
2017-07-20T17:04:37.006Z,40.69
2017-07-20T17:07:04.464Z,40.75
2017-07-20T17:09:31.939Z,41.18
2017-07-20T17:11:59.458Z,39.95
2017-07-20T17:14:27.017Z,40.20
2017-07-20T17:16:54.477Z,40.52
2017-07-20T17:19:21.954Z,40.37
2017-07-20T17:21:49.399Z,40.56
2017-07-20T17:24:16.949Z,39.83
2017-07-20T17:26:44.561Z,39.48
2017-07-20T17:29:12.063Z,39.48
2017-07-20T17:31:39.649Z,39.88
2017-07-20T17:34:07.134Z,39.83
2017-07-20T17:36:34.637Z,39.81
2017-07-20T17:39:02.097Z,40.55
2017-07-20T17:41:29.595Z,40.47
2017-07-20T17:43:57.113Z,40.70
2017-07-20T17:46:24.575Z,42.05
2017-07-20T17:48:52.179Z,41.89
2017-07-20T17:51:19.685Z,42.14
2017-07-20T17:53:47.124Z,42.51
2017-07-20T17:56:14.598Z,42.33
2017-07-20T17:58:42.062Z,42.64
2017-07-20T18:01:09.613Z,42.20
2017-07-20T18:03:37.095Z,42.54
2017-07-20T18:06:04.530Z,42.69
2017-07-20T18:08:32.035Z,42.05
2017-07-20T18:10:59.541Z,42.36
2017-07-20T18:13:27.025Z,42.41
2017-07-20T18:15:54.552Z,42.42
2017-07-20T18:18:22.019Z,43.00
2017-07-20T18:20:49.471Z,42.92
2017-07-20T18:23:16.944Z,42.62
2017-07-20T18:25:44.389Z,43.80
2017-07-20T18:28:11.936Z,43.32
2017-07-20T18:30:39.397Z,44.07
2017-07-20T18:33:06.883Z,43.08
2017-07-20T18:35:34.412Z,42.57
2017-07-20T18:38:01.850Z,42.80
2017-07-20T18:40:29.423Z,42.55
2017-07-20T18:42:56.879Z,42.66
2017-07-20T18:45:24.340Z,41.94
2017-07-20T18:47:51.891Z,42.68
2017-07-20T18:50:19.355Z,43.14
2017-07-20T18:52:46.798Z,43.54
2017-07-20T18:55:14.403Z,43.44
2017-07-20T18:57:42.144Z,44.03
2017-07-20T19:00:09.627Z,44.33
2017-07-20T19:02:37.148Z,44.93
2017-07-20T19:05:04.703Z,44.99
2017-07-20T19:07:32.143Z,44.88
2017-07-20T19:10:00.077Z,45.84
2017-07-20T19:12:27.588Z,46.07
2017-07-20T19:14:55.158Z,46.31
2017-07-20T19:17:22.608Z,45.74
2017-07-20T19:19:50.067Z,46.61
2017-07-20T19:22:17.523Z,46.65
2017-07-20T19:24:45.075Z,46.40
2017-07-20T19:27:12.642Z,48.19
2017-07-20T19:29:40.088Z,48.61
2017-07-20T19:32:07.646Z,49.28
2017-07-20T19:34:35.118Z,50.23
2017-07-20T19:37:02.663Z,50.13
2017-07-20T19:39:30.103Z,49.41
2017-07-20T19:41:57.680Z,49.72
2017-07-20T19:44:25.136Z,50.49
2017-07-20T19:46:52.603Z,50.12
2017-07-20T19:49:20.227Z,49.42
2017-07-20T19:51:47.727Z,50.22
2017-07-20T19:54:15.176Z,50.32
2017-07-20T19:56:42.726Z,50.43
2017-07-20T19:59:10.198Z,50.21
2017-07-20T20:01:37.692Z,50.42
2017-07-20T20:04:05.199Z,51.33
2017-07-20T20:06:32.808Z,51.47
2017-07-20T20:09:00.318Z,51.69
2017-07-20T20:11:27.769Z,51.84
2017-07-20T20:13:55.333Z,52.24
2017-07-20T20:16:22.800Z,52.51
2017-07-20T20:18:50.340Z,52.39
2017-07-20T20:21:17.800Z,52.57
2017-07-20T20:23:45.299Z,52.79
2017-07-20T20:26:12.866Z,55.37
2017-07-20T20:28:40.371Z,56.77
2017-07-20T20:31:07.820Z,57.15
2017-07-20T20:33:35.389Z,58.25
2017-07-20T20:36:02.948Z,59.95
2017-07-20T20:38:30.526Z,60.93
2017-07-20T20:40:57.979Z,62.64
2017-07-20T20:43:25.448Z,62.66
2017-07-20T20:45:52.939Z,62.21
2017-07-20T20:48:20.434Z,62.20
2017-07-20T20:50:47.912Z,61.93
2017-07-20T20:53:15.400Z,62.54
2017-07-20T20:55:42.907Z,61.82
2017-07-20T20:58:10.467Z,59.47
2017-07-20T21:00:37.935Z,58.14
2017-07-20T21:03:05.475Z,59.34
2017-07-20T21:05:32.938Z,61.16
2017-07-20T21:08:00.500Z,60.89
2017-07-20T21:10:27.979Z,61.25
2017-07-20T21:12:55.503Z,60.69
2017-07-20T21:15:22.963Z,60.21
2017-07-20T21:17:50.526Z,61.05
2017-07-20T21:20:17.997Z,60.42
2017-07-20T21:22:45.458Z,61.57
2017-07-20T21:25:12.928Z,61.84
2017-07-20T21:27:40.455Z,63.22
2017-07-20T21:30:08.030Z,63.01
2017-07-20T21:32:35.522Z,64.94
2017-07-20T21:35:03.028Z,64.79
2017-07-20T21:37:30.476Z,65.24
2017-07-20T21:39:57.924Z,65.48
2017-07-20T21:42:25.398Z,66.28
2017-07-20T21:44:52.853Z,67.58
2017-07-20T21:47:20.319Z,67.88
2017-07-20T21:49:49.404Z,69.65
2017-07-20T21:52:16.963Z,69.56
2017-07-20T21:54:44.408Z,70.08
2017-07-20T21:57:11.975Z,69.76
2017-07-20T21:59:39.424Z,69.59
2017-07-20T22:02:06.995Z,68.42
2017-07-20T22:04:34.468Z,69.77
2017-07-20T22:07:02.009Z,69.63
2017-07-20T22:09:29.456Z,69.99
2017-07-20T22:11:56.935Z,70.32
2017-07-20T22:14:24.480Z,69.51
2017-07-20T22:16:51.927Z,69.14
2017-07-20T22:19:19.496Z,69.31
2017-07-20T22:21:46.939Z,69.93
2017-07-20T22:24:14.503Z,69.51
2017-07-20T22:26:41.971Z,69.95
2017-07-20T22:29:09.519Z,70.68
2017-07-20T22:31:36.982Z,72.13
2017-07-20T22:34:04.447Z,72.27
2017-07-20T22:36:31.890Z,72.21
2017-07-20T22:38:59.455Z,72.24
2017-07-20T22:41:27.013Z,72.14
2017-07-20T22:43:54.479Z,71.21
2017-07-20T22:46:22.027Z,71.07
2017-07-20T22:48:49.536Z,71.98
2017-07-20T22:51:17.035Z,71.36
2017-07-20T22:53:44.491Z,71.82
2017-07-20T22:56:11.968Z,71.49
2017-07-20T22:58:39.507Z,72.22
2017-07-20T23:01:06.992Z,71.82
2017-07-20T23:03:34.483Z,72.62
2017-07-20T23:06:01.952Z,72.99
2017-07-20T23:08:29.472Z,72.72
2017-07-20T23:10:57.002Z,73.18
2017-07-20T23:13:24.459Z,74.19
2017-07-20T23:15:51.918Z,73.96
2017-07-20T23:18:19.519Z,70.78
2017-07-20T23:20:47.012Z,70.02
2017-07-20T23:23:14.459Z,72.19
2017-07-20T23:25:41.923Z,70.83
2017-07-20T23:28:09.400Z,70.73
2017-07-20T23:30:37.057Z,71.99
2017-07-20T23:33:04.675Z,71.29
2017-07-20T23:35:32.179Z,71.96
2017-07-20T23:37:59.736Z,72.85
2017-07-20T23:40:27.186Z,72.15
2017-07-20T23:42:54.756Z,71.82
2017-07-20T23:45:22.213Z,72.07
2017-07-20T23:47:49.769Z,72.37
2017-07-20T23:50:17.328Z,73.44
2017-07-20T23:52:44.836Z,73.90
2017-07-20T23:55:12.283Z,73.27
2017-07-20T23:57:39.753Z,73.54
